This is the latest recevied weather packets stored in our database for station/object SQ8SW-4. If no packets are shown the sender has not sent any weather packets the latest 10 day(s).
| Time | Temp. | Humidity | Pressure | Rain* | Wind** | Luminosity | Snow |
|---|---|---|---|---|---|---|---|
| 1777920649 | 20.56° C | 34% | 985 hPa | - | - | - | - |
| 1777919747 | 21.11° C | 33% | 985 hPa | - | - | - | - |
| 1777918845 | 21.67° C | 33% | 984 hPa | - | - | - | - |
| 1777917943 | 22.78° C | 32% | 984 hPa | - | - | - | - |
| 1777917040 | 23.89° C | 31% | 984 hPa | - | - | - | - |
| 1777916138 | 25° C | 28% | 984 hPa | - | - | - | - |
| 1777915236 | 26.11° C | 27% | 984 hPa | - | - | - | - |
| 1777914334 | 27.22° C | 26% | 984 hPa | - | - | - | - |
| 1777913431 | 27.78° C | 25% | 984 hPa | - | - | - | - |
| 1777912529 | 29.44° C | 24% | 984 hPa | - | - | - | - |
| 1777911627 | 31.67° C | 22% | 984 hPa | - | - | - | - |
| 1777910725 | 32.78° C | 18% | 984 hPa | - | - | - | - |
| 1777909823 | 31.67° C | 17% | 984 hPa | - | - | - | - |
| 1777908920 | 30° C | 18% | 984 hPa | - | - | - | - |
| 1777908018 | 27.78° C | 19% | 985 hPa | - | - | - | - |
| 1777907116 | 26.67° C | 24% | 985 hPa | - | - | - | - |
| 1777906214 | 26.67° C | 24% | 985 hPa | - | - | - | - |
| 1777905311 | 26.67° C | 24% | 985 hPa | - | - | - | - |
| 1777904409 | 26.67° C | 25% | 985 hPa | - | - | - | - |
| 1777903507 | 26.67° C | 25% | 985 hPa | - | - | - | - |
| 1777902605 | 26.67° C | 26% | 985 hPa | - | - | - | - |
| 1777901703 | 26.67° C | 25% | 985 hPa | - | - | - | - |
| 1777900800 | 26.67° C | 26% | 986 hPa | - | - | - | - |
| 1777899898 | 26.11° C | 26% | 986 hPa | - | - | - | - |
| 1777898996 | 26.11° C | 27% | 986 hPa | - | - | - | - |
* Rain since midnight (hover to see other rain measurements)
** Current wind speed in m/s (hover to see current wind gust speed)